createdAt,value
2023-03-25T00:03:35.521Z,8.60
2023-03-25T00:07:57.444Z,8.50
2023-03-25T00:12:19.834Z,8.40
2023-03-25T00:16:41.524Z,8.30
2023-03-25T00:21:05.533Z,8.20
2023-03-25T00:25:27.620Z,8.10
2023-03-25T00:29:49.621Z,7.90
2023-03-25T00:34:14.910Z,7.70
2023-03-25T00:38:38.150Z,7.50
2023-03-25T00:43:01.365Z,7.50
2023-03-25T00:47:23.431Z,7.40
2023-03-25T00:51:53.239Z,7.40
2023-03-25T00:56:16.404Z,7.40
2023-03-25T01:00:38.207Z,7.70
2023-03-25T01:05:00.913Z,7.90
2023-03-25T01:09:22.715Z,8.00
2023-03-25T01:13:44.442Z,8.10
2023-03-25T01:18:06.742Z,8.10
2023-03-25T01:22:28.810Z,8.20
2023-03-25T01:26:51.081Z,8.30
2023-03-25T01:31:14.855Z,8.40
2023-03-25T01:35:36.925Z,8.50
2023-03-25T01:39:58.705Z,8.60
2023-03-25T01:44:24.205Z,8.50
2023-03-25T01:48:50.070Z,8.60
2023-03-25T01:53:12.291Z,8.80
2023-03-25T01:57:34.373Z,8.90
2023-03-25T02:01:59.772Z,8.90
2023-03-25T02:06:32.074Z,8.90
2023-03-25T02:10:54.346Z,8.90
2023-03-25T02:15:18.786Z,8.90
2023-03-25T02:20:08.983Z,8.90
2023-03-25T02:25:10.049Z,8.70
2023-03-25T02:30:19.688Z,8.60
2023-03-25T02:35:13.146Z,8.60
2023-03-25T02:39:52.709Z,8.50
2023-03-25T02:44:56.488Z,8.40
2023-03-25T02:49:46.538Z,8.40
2023-03-25T02:54:12.886Z,8.30
2023-03-25T02:58:35.583Z,8.40
2023-03-25T03:03:01.528Z,8.40
2023-03-25T03:07:33.000Z,8.40
2023-03-25T03:12:20.963Z,8.60
2023-03-25T03:17:23.912Z,8.60
2023-03-25T03:22:14.168Z,8.60
2023-03-25T03:26:58.290Z,8.60
2023-03-25T03:31:48.342Z,8.60
2023-03-25T03:36:37.443Z,8.60
2023-03-25T03:41:07.889Z,8.50
2023-03-25T03:45:48.550Z,8.60
2023-03-25T03:50:19.647Z,8.60
2023-03-25T03:54:52.741Z,8.60
2023-03-25T03:59:28.466Z,8.60
2023-03-25T04:03:58.119Z,8.60
2023-03-25T04:08:32.831Z,8.60
2023-03-25T04:12:56.962Z,8.70
2023-03-25T04:17:19.133Z,8.70
2023-03-25T04:21:41.701Z,8.60
2023-03-25T04:26:04.017Z,8.60
2023-03-25T04:30:29.912Z,8.40
2023-03-25T04:34:51.801Z,8.20
2023-03-25T04:39:17.765Z,8.00
2023-03-25T04:43:39.618Z,7.90
2023-03-25T04:48:01.597Z,7.80
2023-03-25T04:52:23.830Z,7.70
2023-03-25T04:56:47.953Z,7.60
2023-03-25T05:01:31.107Z,7.50
2023-03-25T05:05:53.783Z,7.30
2023-03-25T05:10:22.275Z,7.20
2023-03-25T05:14:44.055Z,7.20
2023-03-25T05:19:10.824Z,7.30
2023-03-25T05:23:32.680Z,7.30
2023-03-25T05:27:54.634Z,7.30
2023-03-25T05:32:19.515Z,7.20
2023-03-25T05:36:41.928Z,7.20
2023-03-25T05:41:04.127Z,7.30
2023-03-25T05:45:26.218Z,7.50
2023-03-25T05:49:49.750Z,9.80
2023-03-25T05:54:12.155Z,12.20
2023-03-25T05:58:33.788Z,13.50
2023-03-25T06:02:55.772Z,13.20
2023-03-25T06:07:20.898Z,14.20
2023-03-25T06:11:42.876Z,16.00
2023-03-25T06:16:06.584Z,17.60
2023-03-25T06:20:28.720Z,18.50
2023-03-25T06:24:52.447Z,18.80
2023-03-25T06:29:14.311Z,19.30
2023-03-25T06:33:43.100Z,19.90
2023-03-25T06:38:06.079Z,19.90
2023-03-25T06:42:45.049Z,19.90
2023-03-25T06:47:25.563Z,16.60
2023-03-25T06:51:48.136Z,13.80
2023-03-25T06:56:10.398Z,12.30
2023-03-25T07:00:32.100Z,10.90
2023-03-25T07:04:54.332Z,10.30
2023-03-25T07:09:16.593Z,10.30
2023-03-25T07:13:38.590Z,10.20
2023-03-25T07:18:00.453Z,10.30
2023-03-25T07:22:22.420Z,10.30
2023-03-25T07:26:44.345Z,10.60
2023-03-25T07:31:14.065Z,11.00
2023-03-25T07:35:36.718Z,11.00
2023-03-25T07:39:58.655Z,10.50
2023-03-25T07:44:21.449Z,9.60
2023-03-25T07:48:44.916Z,9.20
2023-03-25T07:53:07.110Z,8.90
2023-03-25T07:57:28.682Z,8.70
2023-03-25T08:01:50.568Z,8.50
2023-03-25T08:06:12.962Z,8.50
2023-03-25T08:10:35.256Z,8.50
2023-03-25T08:14:57.293Z,8.40
2023-03-25T08:19:19.345Z,8.60
2023-03-25T08:23:41.221Z,8.60
2023-03-25T08:28:03.793Z,8.50
2023-03-25T08:32:28.005Z,8.40
2023-03-25T08:36:50.262Z,8.20
2023-03-25T08:41:12.068Z,8.10
2023-03-25T08:45:35.845Z,8.30
2023-03-25T08:49:57.488Z,8.50
2023-03-25T08:54:19.432Z,8.70
2023-03-25T08:58:41.279Z,8.70
2023-03-25T09:03:07.211Z,8.90
2023-03-25T09:07:30.307Z,9.20
2023-03-25T09:11:52.230Z,9.60
2023-03-25T09:16:14.197Z,10.40
2023-03-25T09:20:36.439Z,11.40
2023-03-25T09:24:58.087Z,11.70
2023-03-25T09:29:19.894Z,11.60
2023-03-25T09:33:41.721Z,11.50
2023-03-25T09:38:03.555Z,13.50
2023-03-25T09:43:03.509Z,14.00
2023-03-25T09:47:26.597Z,13.10
2023-03-25T09:51:51.144Z,13.20
2023-03-25T09:56:23.116Z,13.90
2023-03-25T10:00:46.657Z,13.60
2023-03-25T10:05:37.512Z,13.50
2023-03-25T10:10:36.841Z,12.80
2023-03-25T10:15:38.346Z,11.80
2023-03-25T10:20:13.120Z,11.30
2023-03-25T10:25:00.373Z,12.40
2023-03-25T10:29:37.131Z,13.80
2023-03-25T10:34:10.304Z,13.70
2023-03-25T10:38:34.776Z,13.80
2023-03-25T10:43:23.964Z,14.10
2023-03-25T10:47:47.702Z,17.70
2023-03-25T10:52:10.083Z,20.50
2023-03-25T10:56:37.611Z,21.10
2023-03-25T11:01:02.941Z,18.90
2023-03-25T11:05:28.526Z,17.10
2023-03-25T11:09:51.846Z,14.50
2023-03-25T11:14:15.321Z,13.70
2023-03-25T11:18:40.650Z,14.30
2023-03-25T11:23:20.096Z,14.60
2023-03-25T11:27:51.736Z,14.20
2023-03-25T11:32:16.896Z,14.30
2023-03-25T11:37:00.975Z,15.50
2023-03-25T11:41:23.458Z,14.80
2023-03-25T11:45:46.240Z,16.70
2023-03-25T11:50:25.801Z,16.60
2023-03-25T11:54:48.000Z,16.10
2023-03-25T11:59:36.254Z,17.50
2023-03-25T12:04:16.421Z,18.00
2023-03-25T12:08:50.895Z,16.30
2023-03-25T12:13:37.099Z,15.60
2023-03-25T12:18:48.297Z,15.00
2023-03-25T12:23:37.890Z,14.70
2023-03-25T12:28:24.595Z,15.00
2023-03-25T12:33:06.332Z,14.60
2023-03-25T12:37:36.573Z,14.40
2023-03-25T12:42:35.535Z,13.90
2023-03-25T12:48:24.029Z,13.70
2023-03-25T12:53:23.458Z,13.60
2023-03-25T12:58:07.921Z,13.50
2023-03-25T13:03:07.784Z,13.70
2023-03-25T13:07:39.571Z,13.80
2023-03-25T13:12:09.588Z,13.40
2023-03-25T13:16:34.072Z,13.50
2023-03-25T13:21:14.200Z,13.90
2023-03-25T13:25:54.688Z,14.20
2023-03-25T13:30:34.824Z,13.90
2023-03-25T13:35:07.290Z,13.70
2023-03-25T13:40:10.987Z,13.50
2023-03-25T13:44:39.238Z,13.60
2023-03-25T13:49:33.242Z,13.40
2023-03-25T13:54:18.017Z,13.50
2023-03-25T13:58:51.564Z,12.90
2023-03-25T14:03:53.472Z,11.30
2023-03-25T14:08:56.652Z,10.50
2023-03-25T14:13:28.326Z,9.50
2023-03-25T14:17:52.861Z,8.80
2023-03-25T14:22:23.141Z,8.90
2023-03-25T14:27:18.032Z,9.10
2023-03-25T14:31:39.944Z,9.80
2023-03-25T14:36:01.969Z,10.40
2023-03-25T14:41:01.986Z,10.70
2023-03-25T14:46:11.055Z,10.70
2023-03-25T14:50:35.123Z,10.60
2023-03-25T14:55:00.044Z,10.40
2023-03-25T14:59:29.306Z,10.00
2023-03-25T15:04:30.990Z,9.80
2023-03-25T15:08:56.914Z,10.10
2023-03-25T15:13:33.340Z,10.20
2023-03-25T15:17:56.226Z,10.30
2023-03-25T15:22:21.984Z,10.20
2023-03-25T15:26:45.677Z,9.80
2023-03-25T15:31:38.502Z,9.50
2023-03-25T15:36:14.015Z,9.50
2023-03-25T15:41:10.789Z,9.50
2023-03-25T15:46:10.213Z,9.60
2023-03-25T15:50:43.345Z,9.80
2023-03-25T15:55:14.517Z,10.10
2023-03-25T15:59:44.535Z,10.30
2023-03-25T16:04:23.391Z,10.40
2023-03-25T16:08:47.341Z,10.20
2023-03-25T16:13:23.970Z,10.00
2023-03-25T16:17:47.465Z,9.90
2023-03-25T16:22:28.233Z,9.90
2023-03-25T16:26:50.091Z,9.80
2023-03-25T16:31:34.481Z,9.60
2023-03-25T16:36:04.288Z,9.40
2023-03-25T16:40:40.247Z,9.30
2023-03-25T16:45:02.909Z,9.20
2023-03-25T16:49:32.693Z,9.10
2023-03-25T16:53:59.360Z,9.00
2023-03-25T16:58:26.325Z,8.80
2023-03-25T17:02:50.006Z,8.60
2023-03-25T17:07:20.925Z,8.50
2023-03-25T17:11:45.360Z,8.40
2023-03-25T17:16:11.989Z,8.50
2023-03-25T17:20:43.488Z,8.30
2023-03-25T17:25:29.506Z,8.30
2023-03-25T17:30:00.687Z,8.20
2023-03-25T17:34:24.856Z,8.10
2023-03-25T17:38:50.419Z,8.00
2023-03-25T17:43:21.238Z,8.00
2023-03-25T17:47:43.602Z,8.20
2023-03-25T17:52:05.499Z,8.20
2023-03-25T17:56:28.601Z,8.10
2023-03-25T18:00:52.370Z,8.10
2023-03-25T18:05:15.612Z,8.10
2023-03-25T18:09:39.368Z,8.10
2023-03-25T18:14:01.313Z,8.30
2023-03-25T18:18:26.307Z,8.50
2023-03-25T18:22:49.023Z,8.30
2023-03-25T18:27:14.368Z,7.80
2023-03-25T18:31:36.724Z,7.50
2023-03-25T18:35:59.986Z,7.30
2023-03-25T18:40:28.880Z,7.30
2023-03-25T18:44:52.686Z,7.30
2023-03-25T18:49:18.590Z,7.30
2023-03-25T18:53:41.335Z,7.30
2023-03-25T18:58:04.613Z,7.30
2023-03-25T19:02:26.647Z,7.40
2023-03-25T19:06:48.707Z,7.70
2023-03-25T19:11:20.754Z,7.80
2023-03-25T19:15:43.685Z,7.90
2023-03-25T19:20:06.800Z,7.90
2023-03-25T19:24:28.881Z,7.90
2023-03-25T19:28:50.414Z,7.90
2023-03-25T19:33:13.788Z,7.80
2023-03-25T19:37:35.638Z,7.50
2023-03-25T19:41:57.786Z,7.10
2023-03-25T19:46:19.760Z,6.90
2023-03-25T19:50:42.928Z,6.70
2023-03-25T19:55:07.265Z,6.50
2023-03-25T19:59:29.363Z,6.50
2023-03-25T20:03:51.714Z,6.40
2023-03-25T20:08:14.416Z,6.50
2023-03-25T20:12:36.914Z,6.50
2023-03-25T20:16:59.299Z,6.60
2023-03-25T20:21:23.032Z,6.60
2023-03-25T20:25:45.791Z,6.70
2023-03-25T20:30:10.157Z,6.70
2023-03-25T20:34:33.721Z,6.70
2023-03-25T20:38:58.027Z,6.80
2023-03-25T20:43:21.524Z,6.70
2023-03-25T20:47:44.628Z,6.70
2023-03-25T20:52:06.648Z,6.80
2023-03-25T20:56:28.755Z,6.90
2023-03-25T21:00:51.098Z,7.00
2023-03-25T21:05:13.079Z,7.10
2023-03-25T21:09:36.738Z,7.20
2023-03-25T21:13:58.827Z,7.20
2023-03-25T21:18:24.297Z,7.30
2023-03-25T21:22:46.046Z,7.40
2023-03-25T21:27:08.002Z,7.50
2023-03-25T21:31:30.127Z,7.50
2023-03-25T21:35:53.430Z,7.50
2023-03-25T21:40:17.621Z,7.50
2023-03-25T21:44:43.194Z,7.40
2023-03-25T21:49:05.273Z,7.30
2023-03-25T21:53:32.364Z,7.20
2023-03-25T21:57:54.257Z,7.10
2023-03-25T22:02:17.156Z,7.20
2023-03-25T22:06:39.268Z,7.20
2023-03-25T22:11:10.686Z,7.00
2023-03-25T22:15:34.932Z,6.80
2023-03-25T22:19:56.869Z,6.70
2023-03-25T22:24:18.589Z,6.70
2023-03-25T22:28:41.018Z,6.60
2023-03-25T22:33:02.875Z,6.50
2023-03-25T22:37:24.837Z,6.40
2023-03-25T22:41:46.913Z,6.40
2023-03-25T22:46:10.018Z,6.40
2023-03-25T22:50:31.889Z,6.40
2023-03-25T22:54:53.637Z,6.40
2023-03-25T22:59:18.076Z,6.50
2023-03-25T23:03:39.804Z,6.40
2023-03-25T23:08:01.575Z,6.40
2023-03-25T23:12:25.544Z,6.60
2023-03-25T23:16:47.453Z,6.70
2023-03-25T23:21:15.708Z,6.80
2023-03-25T23:25:37.490Z,6.90
2023-03-25T23:30:01.025Z,7.00
2023-03-25T23:34:23.119Z,7.00
2023-03-25T23:38:45.326Z,7.00
2023-03-25T23:43:07.242Z,7.00
2023-03-25T23:47:29.032Z,7.10
2023-03-25T23:51:51.394Z,7.10
2023-03-25T23:56:19.069Z,7.10
